Time;durP1;ratioP1;P1;durP2;ratioP2;P2;SDS_P1;SDS_P2;PMS_P1;PMS_P2;Temp;Humidity;BMP_temperature;BMP_pressure;BME280_temperature;BME280_humidity;BME280_pressure;Samples;Min_cycle;Max_cycle;Signal;HPM_P1;HPM_P2
2023/01/28 00:00:32;;;;;;;81.30;43.05;;;;;;;;;;6158483;23;20435;-88
2023/01/28 00:02:57;;;;;;;80.85;43.40;;;;;;;;;;6184693;23;20076;-89
2023/01/28 00:05:22;;;;;;;91.53;47.40;;;;;;;;;;6184083;23;20005;-89
2023/01/28 00:07:49;;;;;;;83.93;45.70;;;;;;;;;;6201726;23;20000;-89
2023/01/28 00:10:14;;;;;;;87.15;46.20;;;;;;;;;;6186555;23;20419;-89
2023/01/28 00:12:40;;;;;;;86.63;46.38;;;;;;;;;;6191521;23;20005;-90
2023/01/28 00:15:06;;;;;;;85.40;46.83;;;;;;;;;;6186587;23;20092;-88
2023/01/28 00:17:32;;;;;;;85.28;45.13;;;;;;;;;;6183252;23;20005;-89
2023/01/28 00:19:58;;;;;;;80.50;41.95;;;;;;;;;;6183007;23;20001;-89
2023/01/28 00:22:24;;;;;;;80.18;40.45;;;;;;;;;;6179741;23;20032;-89
2023/01/28 00:24:49;;;;;;;71.45;39.30;;;;;;;;;;6183962;23;20001;-90
2023/01/28 00:27:15;;;;;;;80.47;41.60;;;;;;;;;;6200803;23;19993;-89
2023/01/28 00:29:41;;;;;;;79.32;41.63;;;;;;;;;;6159793;23;20345;-88
2023/01/28 00:32:06;;;;;;;85.35;42.75;;;;;;;;;;6184133;23;20005;-87
2023/01/28 00:34:31;;;;;;;81.45;41.85;;;;;;;;;;6190819;23;20009;-90
2023/01/28 00:36:57;;;;;;;72.55;39.97;;;;;;;;;;6184053;23;20507;-89
2023/01/28 00:39:26;;;;;;;83.75;42.60;;;;;;;;;;6186573;23;20001;-89
2023/01/28 00:41:51;;;;;;;81.45;42.25;;;;;;;;;;6161649;23;20009;-87
2023/01/28 00:44:17;;;;;;;79.03;41.50;;;;;;;;;;6190530;23;20036;-87
2023/01/28 00:46:43;;;;;;;85.68;43.28;;;;;;;;;;6214245;23;20039;-88
2023/01/28 00:49:08;;;;;;;84.20;42.33;;;;;;;;;;6205789;23;20009;-83
2023/01/28 00:51:34;;;;;;;74.45;40.90;;;;;;;;;;6214485;23;20009;-80
2023/01/28 00:53:59;;;;;;;78.30;39.72;;;;;;;;;;6163692;23;20001;-83
2023/01/28 00:56:25;;;;;;;78.22;39.42;;;;;;;;;;6214951;23;19997;-86
2023/01/28 00:58:51;;;;;;;76.15;38.53;;;;;;;;;;6214064;23;20012;-85
2023/01/28 01:01:17;;;;;;;73.05;37.53;;;;;;;;;;6214643;23;19993;-82
2023/01/28 01:03:43;;;;;;;77.63;38.90;;;;;;;;;;6212088;23;19993;-86
2023/01/28 01:06:08;;;;;;;76.15;39.38;;;;;;;;;;6214428;23;20004;-85
2023/01/28 01:08:34;;;;;;;71.25;37.00;;;;;;;;;;6159120;23;20008;-86
2023/01/28 01:11:02;;;;;;;62.90;32.13;;;;;;;;;;6205774;23;20064;-89
2023/01/28 01:13:29;;;;;;;62.13;30.35;;;;;;;;;;6182358;23;20001;-87
2023/01/28 01:16:10;;;;;;;55.97;27.35;;;;;;;;;;6152889;23;20088;-88
2023/01/28 01:18:35;;;;;;;43.30;22.65;;;;;;;;;;6185670;23;20625;-88
2023/01/28 01:21:02;;;;;;;39.63;20.85;;;;;;;;;;6186330;23;20084;-88
2023/01/28 01:23:29;;;;;;;37.20;20.02;;;;;;;;;;6159415;23;20005;-89
2023/01/28 01:25:54;;;;;;;38.60;20.17;;;;;;;;;;6197927;23;20001;-88
2023/01/28 01:28:20;;;;;;;41.13;21.42;;;;;;;;;;6168006;23;20312;-89
2023/01/28 01:30:46;;;;;;;44.58;21.95;;;;;;;;;;6185063;23;20013;-89
2023/01/28 01:33:11;;;;;;;38.15;20.25;;;;;;;;;;6186424;23;20021;-88
2023/01/28 01:35:37;;;;;;;35.38;19.92;;;;;;;;;;6185897;23;20455;-88
2023/01/28 01:38:02;;;;;;;36.25;19.33;;;;;;;;;;6185552;23;20008;-88
2023/01/28 01:40:29;;;;;;;36.33;18.42;;;;;;;;;;6184553;23;20001;-89
2023/01/28 01:42:55;;;;;;;31.58;17.88;;;;;;;;;;6186154;23;20076;-89
2023/01/28 01:45:20;;;;;;;31.77;17.63;;;;;;;;;;6201234;23;20005;-88
2023/01/28 01:48:05;;;;;;;32.72;18.23;;;;;;;;;;6190292;23;20133;-87
2023/01/28 01:50:43;;;;;;;30.10;16.17;;;;;;;;;;6183856;23;20013;-89
2023/01/28 01:53:11;;;;;;;24.67;14.07;;;;;;;;;;6184339;23;20012;-89
2023/01/28 01:55:38;;;;;;;27.65;15.10;;;;;;;;;;6159203;23;19997;-88
2023/01/28 01:58:06;;;;;;;27.30;14.90;;;;;;;;;;6183918;23;20352;-88
2023/01/28 02:00:31;;;;;;;23.13;13.65;;;;;;;;;;6160214;23;20070;-88
2023/01/28 02:02:57;;;;;;;24.27;13.25;;;;;;;;;;6194754;23;20001;-88
2023/01/28 02:05:23;;;;;;;21.65;12.35;;;;;;;;;;6193833;23;20021;-88
2023/01/28 02:07:50;;;;;;;24.42;12.95;;;;;;;;;;6160140;23;20051;-87
2023/01/28 02:10:16;;;;;;;25.90;12.45;;;;;;;;;;6184866;23;20012;-88
2023/01/28 02:12:43;;;;;;;22.00;12.52;;;;;;;;;;6159860;23;20009;-87
2023/01/28 02:15:13;;;;;;;21.17;11.32;;;;;;;;;;6159510;23;20075;-89
2023/01/28 02:17:38;;;;;;;;;;;;;;;;;;6160757;23;20013;-89
2023/01/28 02:20:08;;;;;;;22.15;11.88;;;;;;;;;;6185328;23;20256;-89
2023/01/28 02:22:36;;;;;;;22.67;12.35;;;;;;;;;;6185836;23;20007;-88
2023/01/28 02:25:39;;;;;;;22.95;12.13;;;;;;;;;;6196955;23;20012;-88
2023/01/28 02:28:25;;;;;;;22.55;12.07;;;;;;;;;;6183040;23;19997;-88
2023/01/28 02:31:03;;;;;;;17.50;11.57;;;;;;;;;;6183777;23;20095;-88
2023/01/28 02:33:35;;;;;;;18.85;11.50;;;;;;;;;;6184569;23;20344;-88
2023/01/28 02:36:06;;;;;;;21.13;11.38;;;;;;;;;;6164747;23;19997;-89
2023/01/28 02:38:33;;;;;;;18.45;10.45;;;;;;;;;;6161700;23;20028;-88
2023/01/28 02:41:05;;;;;;;21.75;11.82;;;;;;;;;;6196792;23;20019;-84
2023/01/28 02:43:34;;;;;;;20.40;11.55;;;;;;;;;;6157960;23;20068;-87
2023/01/28 02:48:46;;;;;;;26.05;14.00;;;;;;;;;;6163556;23;20032;-89
2023/01/28 02:51:38;;;;;;;25.13;13.32;;;;;;;;;;6184914;23;20041;-88
2023/01/28 02:54:42;;;;;;;25.02;14.00;;;;;;;;;;6183161;23;20011;-89
2023/01/28 02:57:43;;;;;;;21.27;12.15;;;;;;;;;;6150562;23;20013;-89
2023/01/28 03:00:09;;;;;;;19.23;11.85;;;;;;;;;;6135527;23;20360;-89
2023/01/28 03:02:54;;;;;;;19.58;11.48;;;;;;;;;;6190174;23;20020;-87
2023/01/28 03:05:24;;;;;;;20.67;11.60;;;;;;;;;;6196238;23;20012;-89
2023/01/28 03:07:49;;;;;;;18.67;11.10;;;;;;;;;;6184264;23;20028;-90
2023/01/28 03:10:17;;;;;;;21.30;11.82;;;;;;;;;;6183501;23;20009;-89
2023/01/28 03:39:04;;;;;;;20.30;11.70;;;;;;;;;;6184477;23;20056;-90
2023/01/28 03:41:30;;;;;;;20.42;12.15;;;;;;;;;;6190034;23;20001;-89
2023/01/28 03:43:55;;;;;;;16.80;10.48;;;;;;;;;;6177920;23;20064;-89
2023/01/28 03:46:21;;;;;;;20.70;11.48;;;;;;;;;;6183445;23;20128;-90
2023/01/28 03:48:46;;;;;;;20.30;11.77;;;;;;;;;;6185583;23;20450;-88
2023/01/28 03:51:11;;;;;;;24.40;12.98;;;;;;;;;;6196680;23;20009;-89
2023/01/28 03:53:38;;;;;;;20.05;11.95;;;;;;;;;;6198060;23;20005;-89
2023/01/28 03:56:03;;;;;;;22.20;11.98;;;;;;;;;;6193952;23;20028;-89
2023/01/28 03:58:44;;;;;;;19.85;12.43;;;;;;;;;;6183569;23;20005;-90
2023/01/28 04:01:10;;;;;;;20.77;11.25;;;;;;;;;;6199590;23;20005;-89
2023/01/28 04:03:36;;;;;;;20.17;11.88;;;;;;;;;;6197861;23;20332;-88
2023/01/28 04:06:05;;;;;;;20.73;12.02;;;;;;;;;;6184995;23;20104;-89
2023/01/28 04:08:31;;;;;;;20.25;12.55;;;;;;;;;;6183302;23;20005;-89
2023/01/28 04:10:56;;;;;;;21.58;11.85;;;;;;;;;;6184513;23;20503;-89
2023/01/28 04:13:22;;;;;;;21.27;12.23;;;;;;;;;;6183457;23;20451;-89
2023/01/28 04:15:47;;;;;;;21.60;12.38;;;;;;;;;;6158299;23;20008;-89
2023/01/28 04:18:13;;;;;;;18.73;11.70;;;;;;;;;;6182757;23;20001;-89
2023/01/28 04:20:38;;;;;;;22.42;12.80;;;;;;;;;;6188431;23;20002;-90
2023/01/28 04:23:04;;;;;;;23.05;13.20;;;;;;;;;;6190294;23;20005;-90
2023/01/28 04:25:30;;;;;;;23.10;13.50;;;;;;;;;;6183184;23;19997;-89
2023/01/28 04:27:56;;;;;;;23.80;13.50;;;;;;;;;;6184120;23;20028;-88
2023/01/28 04:30:21;;;;;;;22.30;13.48;;;;;;;;;;6182750;23;20413;-90
2023/01/28 04:32:49;;;;;;;24.50;14.52;;;;;;;;;;6152345;23;20519;-90
2023/01/28 04:35:16;;;;;;;26.45;14.80;;;;;;;;;;6182853;23;20009;-89
2023/01/28 04:37:41;;;;;;;28.73;16.00;;;;;;;;;;6184058;23;20004;-88
2023/01/28 04:40:08;;;;;;;29.02;17.08;;;;;;;;;;6185892;23;20406;-90
2023/01/28 04:42:33;;;;;;;28.83;16.45;;;;;;;;;;6194558;23;20033;-90
2023/01/28 04:44:58;;;;;;;29.48;17.23;;;;;;;;;;6186380;23;20059;-90
2023/01/28 04:47:24;;;;;;;28.20;16.98;;;;;;;;;;6188183;23;19997;-90
2023/01/28 04:49:49;;;;;;;31.25;16.67;;;;;;;;;;6184199;23;20048;-90
2023/01/28 04:52:15;;;;;;;26.90;15.80;;;;;;;;;;6182554;23;20013;-91
2023/01/28 04:54:40;;;;;;;25.98;15.15;;;;;;;;;;6186790;23;20001;-87
2023/01/28 04:57:06;;;;;;;25.75;14.10;;;;;;;;;;6187744;23;20002;-88
2023/01/28 04:59:31;;;;;;;24.25;14.40;;;;;;;;;;6193504;23;20020;-88
2023/01/28 05:01:56;;;;;;;27.13;16.00;;;;;;;;;;6204918;23;20001;-88
2023/01/28 05:04:22;;;;;;;26.95;16.27;;;;;;;;;;6201536;23;20040;-89
2023/01/28 05:06:47;;;;;;;27.30;15.70;;;;;;;;;;6186962;23;19997;-90
2023/01/28 05:09:13;;;;;;;32.25;16.17;;;;;;;;;;6183600;23;20005;-90
2023/01/28 05:11:38;;;;;;;41.05;18.83;;;;;;;;;;6182806;23;20016;-90
2023/01/28 05:14:04;;;;;;;39.22;16.92;;;;;;;;;;6184956;23;20007;-90
2023/01/28 05:16:30;;;;;;;36.08;16.85;;;;;;;;;;6182663;23;20075;-90
2023/01/28 05:18:56;;;;;;;34.75;17.23;;;;;;;;;;6189723;23;19997;-88
2023/01/28 05:21:21;;;;;;;39.10;19.00;;;;;;;;;;6198256;23;20013;-90
2023/01/28 05:23:47;;;;;;;42.75;20.42;;;;;;;;;;6184496;23;19997;-90
2023/01/28 05:26:12;;;;;;;46.45;22.42;;;;;;;;;;6182598;23;20005;-91
2023/01/28 05:28:38;;;;;;;44.95;21.90;;;;;;;;;;6182868;23;20001;-90
2023/01/28 05:31:04;;;;;;;40.72;21.05;;;;;;;;;;6185946;23;20067;-90
2023/01/28 05:33:30;;;;;;;41.53;21.92;;;;;;;;;;6193775;23;20008;-85
2023/01/28 05:35:55;;;;;;;41.67;20.73;;;;;;;;;;6204768;23;19997;-89
2023/01/28 05:38:20;;;;;;;42.50;21.73;;;;;;;;;;6188935;23;20009;-89
2023/01/28 05:40:46;;;;;;;47.45;22.70;;;;;;;;;;6201838;23;20139;-89
2023/01/28 05:43:12;;;;;;;51.85;24.20;;;;;;;;;;6197247;23;20017;-89
2023/01/28 05:45:37;;;;;;;42.33;21.63;;;;;;;;;;6185534;23;20051;-89
2023/01/28 05:48:03;;;;;;;43.83;22.80;;;;;;;;;;6186301;23;20012;-90
2023/01/28 05:50:28;;;;;;;52.63;25.23;;;;;;;;;;6186558;23;20009;-90
2023/01/28 05:52:54;;;;;;;50.92;24.13;;;;;;;;;;6185702;23;20040;-90
2023/01/28 05:55:19;;;;;;;41.78;22.58;;;;;;;;;;6187332;23;19997;-89
2023/01/28 05:57:45;;;;;;;41.80;19.42;;;;;;;;;;6188583;23;20012;-90
2023/01/28 06:00:11;;;;;;;40.17;19.23;;;;;;;;;;6203213;23;20001;-88
2023/01/28 06:02:36;;;;;;;39.22;20.13;;;;;;;;;;6186925;23;20063;-90
2023/01/28 06:05:02;;;;;;;38.92;19.85;;;;;;;;;;6160685;23;19997;-90
2023/01/28 06:07:27;;;;;;;43.42;19.10;;;;;;;;;;6185524;23;20012;-90
2023/01/28 06:09:54;;;;;;;45.67;21.08;;;;;;;;;;6185016;23;20011;-90
2023/01/28 06:12:19;;;;;;;40.15;17.25;;;;;;;;;;6185500;23;20012;-90
2023/01/28 06:14:45;;;;;;;39.35;17.95;;;;;;;;;;6188274;23;19996;-89
2023/01/28 06:17:10;;;;;;;41.65;18.48;;;;;;;;;;6186434;23;20089;-89
2023/01/28 06:19:36;;;;;;;35.17;16.20;;;;;;;;;;6204305;23;20413;-89
2023/01/28 06:22:01;;;;;;;30.70;16.77;;;;;;;;;;6187280;23;20004;-90
2023/01/28 06:24:28;;;;;;;36.92;17.15;;;;;;;;;;6185730;23;20032;-89
2023/01/28 06:26:54;;;;;;;32.53;17.15;;;;;;;;;;6185523;23;20001;-91
2023/01/28 06:29:19;;;;;;;33.80;16.55;;;;;;;;;;6187559;23;20028;-90
2023/01/28 06:31:44;;;;;;;32.78;17.17;;;;;;;;;;6190429;23;20452;-88
2023/01/28 06:34:10;;;;;;;32.15;16.83;;;;;;;;;;6199373;23;20044;-87
2023/01/28 06:36:36;;;;;;;33.90;17.30;;;;;;;;;;6186360;23;20001;-88
2023/01/28 06:39:03;;;;;;;34.72;18.38;;;;;;;;;;6211164;23;20045;-89
2023/01/28 06:41:28;;;;;;;33.78;18.08;;;;;;;;;;6176198;23;19993;-88
2023/01/28 06:43:53;;;;;;;34.58;18.35;;;;;;;;;;6187887;23;20016;-86
2023/01/28 06:46:19;;;;;;;32.10;18.08;;;;;;;;;;6213115;23;20036;-88
2023/01/28 06:48:44;;;;;;;29.83;17.13;;;;;;;;;;6204911;23;20002;-90
2023/01/28 06:51:10;;;;;;;33.13;17.00;;;;;;;;;;6204888;23;20028;-88
2023/01/28 06:53:35;;;;;;;30.55;16.17;;;;;;;;;;6189895;23;20012;-88
2023/01/28 06:56:01;;;;;;;27.38;15.95;;;;;;;;;;6188991;23;20008;-89
2023/01/28 06:58:27;;;;;;;30.00;15.55;;;;;;;;;;6202473;23;20056;-89
2023/01/28 07:00:52;;;;;;;27.20;15.10;;;;;;;;;;6161912;23;20005;-90
2023/01/28 07:03:18;;;;;;;32.08;17.58;;;;;;;;;;6185071;23;20001;-90
2023/01/28 07:05:43;;;;;;;34.95;18.50;;;;;;;;;;6186822;23;20059;-90
2023/01/28 07:08:09;;;;;;;30.90;16.42;;;;;;;;;;6185532;23;20037;-89
2023/01/28 07:10:34;;;;;;;31.17;14.73;;;;;;;;;;6185732;23;20012;-90
2023/01/28 07:12:59;;;;;;;26.33;14.00;;;;;;;;;;6185046;23;20072;-90
2023/01/28 07:15:26;;;;;;;28.45;14.48;;;;;;;;;;6187111;23;20024;-87
2023/01/28 07:17:52;;;;;;;32.70;15.93;;;;;;;;;;6203073;23;20012;-89
2023/01/28 07:20:17;;;;;;;37.53;16.75;;;;;;;;;;6185993;23;20005;-89
2023/01/28 07:22:43;;;;;;;33.72;16.95;;;;;;;;;;6186107;23;20056;-89
2023/01/28 07:25:09;;;;;;;32.67;16.33;;;;;;;;;;6185656;23;20008;-89
2023/01/28 07:27:34;;;;;;;33.53;17.23;;;;;;;;;;6159285;23;20012;-89
2023/01/28 07:30:00;;;;;;;41.28;19.52;;;;;;;;;;6184656;23;20005;-89
2023/01/28 07:32:26;;;;;;;44.03;20.20;;;;;;;;;;6187908;23;20083;-90
2023/01/28 07:34:54;;;;;;;44.05;19.88;;;;;;;;;;6189096;23;20004;-90
2023/01/28 07:37:20;;;;;;;46.65;20.63;;;;;;;;;;6203520;23;20029;-90
2023/01/28 07:39:45;;;;;;;58.35;24.63;;;;;;;;;;6185118;23;20012;-90
2023/01/28 07:42:11;;;;;;;55.72;24.08;;;;;;;;;;6180577;23;20001;-90
2023/01/28 07:44:37;;;;;;;44.13;21.45;;;;;;;;;;6184817;23;20060;-90
2023/01/28 07:47:03;;;;;;;42.92;19.75;;;;;;;;;;6184588;23;20016;-88
2023/01/28 07:49:28;;;;;;;37.03;17.63;;;;;;;;;;6190746;23;20009;-88
2023/01/28 07:51:54;;;;;;;37.60;18.40;;;;;;;;;;6183304;23;20016;-88
2023/01/28 07:54:19;;;;;;;33.67;15.43;;;;;;;;;;6185512;23;20012;-89
2023/01/28 07:56:44;;;;;;;28.48;15.20;;;;;;;;;;6203411;23;20005;-89
2023/01/28 07:59:10;;;;;;;35.95;15.60;;;;;;;;;;6200473;23;20005;-88
2023/01/28 08:01:35;;;;;;;30.58;14.23;;;;;;;;;;6172243;23;19997;-90
2023/01/28 08:04:01;;;;;;;28.73;12.98;;;;;;;;;;6190456;23;20056;-90
2023/01/28 08:06:29;;;;;;;21.90;11.45;;;;;;;;;;6188530;23;20001;-89
2023/01/28 08:08:55;;;;;;;24.75;13.15;;;;;;;;;;6194401;23;20009;-88
2023/01/28 08:11:22;;;;;;;26.58;13.40;;;;;;;;;;6188413;23;20088;-89
2023/01/28 08:13:47;;;;;;;24.55;12.80;;;;;;;;;;6164792;23;20507;-90
2023/01/28 08:16:13;;;;;;;27.13;13.60;;;;;;;;;;6204894;23;20021;-89
2023/01/28 08:18:38;;;;;;;33.08;16.48;;;;;;;;;;6186641;23;20028;-89
2023/01/28 08:21:04;;;;;;;28.90;14.95;;;;;;;;;;6186229;23;20057;-87
2023/01/28 08:23:29;;;;;;;30.90;15.15;;;;;;;;;;6161515;23;20005;-90
2023/01/28 08:25:57;;;;;;;33.30;17.15;;;;;;;;;;6186941;23;20103;-89
2023/01/28 08:28:22;;;;;;;28.48;14.65;;;;;;;;;;6163487;23;20013;-90
2023/01/28 08:30:48;;;;;;;26.30;13.23;;;;;;;;;;6184101;23;20009;-89
2023/01/28 08:33:14;;;;;;;27.35;14.85;;;;;;;;;;6187011;23;20014;-90
2023/01/28 08:35:39;;;;;;;25.95;14.00;;;;;;;;;;6204450;23;20077;-91
2023/01/28 08:38:05;;;;;;;27.52;14.30;;;;;;;;;;6186774;23;20440;-90
2023/01/28 08:40:31;;;;;;;25.27;12.63;;;;;;;;;;6188916;23;20044;-90
2023/01/28 08:42:56;;;;;;;25.40;13.93;;;;;;;;;;6198264;23;20009;-90
2023/01/28 08:45:24;;;;;;;21.73;13.00;;;;;;;;;;6203952;23;20061;-90
2023/01/28 08:47:57;;;;;;;21.25;10.88;;;;;;;;;;6207845;23;20005;-90
2023/01/28 08:50:24;;;;;;;16.80;10.02;;;;;;;;;;6182435;23;20072;-87
2023/01/28 08:52:57;;;;;;;19.40;10.77;;;;;;;;;;6211707;23;19997;-86
2023/01/28 08:55:23;;;;;;;22.73;11.30;;;;;;;;;;6211645;23;20005;-86
2023/01/28 08:57:50;;;;;;;26.38;12.52;;;;;;;;;;6186898;23;20043;-86
2023/01/28 09:00:15;;;;;;;20.95;11.25;;;;;;;;;;6210578;23;19993;-89
2023/01/28 09:02:41;;;;;;;18.27;9.88;;;;;;;;;;6207689;23;20008;-89
2023/01/28 09:05:07;;;;;;;19.25;10.30;;;;;;;;;;6205525;23;20001;-88
2023/01/28 09:07:36;;;;;;;22.65;11.23;;;;;;;;;;6206860;23;20122;-89
2023/01/28 09:10:03;;;;;;;22.40;10.65;;;;;;;;;;6187762;23;20005;-91
2023/01/28 09:12:29;;;;;;;23.58;11.20;;;;;;;;;;6204215;23;20019;-91
2023/01/28 09:14:54;;;;;;;22.00;11.57;;;;;;;;;;6189289;23;20001;-90
2023/01/28 09:17:20;;;;;;;27.80;13.23;;;;;;;;;;6188517;23;20005;-91
2023/01/28 09:19:45;;;;;;;21.83;11.60;;;;;;;;;;6189388;23;20083;-88
2023/01/28 09:22:11;;;;;;;25.38;12.15;;;;;;;;;;6188119;23;20005;-90
2023/01/28 09:24:36;;;;;;;28.27;12.95;;;;;;;;;;6188202;23;20032;-90
2023/01/28 09:27:02;;;;;;;24.63;12.98;;;;;;;;;;6185303;23;20425;-90
2023/01/28 09:29:27;;;;;;;24.92;11.93;;;;;;;;;;6187829;23;20008;-90
2023/01/28 09:31:52;;;;;;;25.52;13.38;;;;;;;;;;6205422;23;20005;-89
2023/01/28 09:34:18;;;;;;;21.65;11.15;;;;;;;;;;6189206;23;20009;-89
2023/01/28 09:36:44;;;;;;;23.45;11.27;;;;;;;;;;6185717;23;20005;-88
2023/01/28 09:39:09;;;;;;;21.75;11.95;;;;;;;;;;6189057;23;20634;-88
2023/01/28 09:42:03;;;;;;;26.48;12.23;;;;;;;;;;6188446;23;20008;-90
2023/01/28 09:44:50;;;;;;;20.52;11.50;;;;;;;;;;6184514;23;20009;-90
2023/01/28 09:47:25;;;;;;;26.10;12.60;;;;;;;;;;6186215;23;20005;-90
2023/01/28 09:49:52;;;;;;;29.58;13.00;;;;;;;;;;6191337;23;20032;-89
2023/01/28 09:52:18;;;;;;;25.38;12.70;;;;;;;;;;6202045;23;20005;-88
2023/01/28 09:54:54;;;;;;;27.65;14.48;;;;;;;;;;6185584;23;20429;-89
2023/01/28 09:57:25;;;;;;;22.00;11.80;;;;;;;;;;6186298;23;20005;-88
2023/01/28 09:59:50;;;;;;;27.17;12.55;;;;;;;;;;6187925;23;20012;-89
2023/01/28 10:02:28;;;;;;;28.00;13.65;;;;;;;;;;6190546;23;20001;-87
2023/01/28 10:05:31;;;;;;;27.90;13.30;;;;;;;;;;6193016;23;20008;-86
2023/01/28 10:08:06;;;;;;;27.38;13.00;;;;;;;;;;6190796;23;20009;-87
2023/01/28 10:10:43;;;;;;;22.05;10.90;;;;;;;;;;6199554;23;20029;-88
2023/01/28 10:13:22;;;;;;;21.88;10.48;;;;;;;;;;6186279;23;20012;-87
2023/01/28 10:16:15;;;;;;;30.17;12.68;;;;;;;;;;6185060;23;20009;-88
2023/01/28 10:18:53;;;;;;;27.42;13.55;;;;;;;;;;6184175;23;20001;-88
2023/01/28 10:21:31;;;;;;;34.40;16.38;;;;;;;;;;6161127;23;20005;-89
2023/01/28 10:24:27;;;;;;;29.50;13.32;;;;;;;;;;6184127;23;20001;-87
2023/01/28 10:27:15;;;;;;;25.33;11.15;;;;;;;;;;6191278;23;20005;-87
2023/01/28 10:29:44;;;;;;;26.58;11.00;;;;;;;;;;6173182;23;20036;-88
2023/01/28 10:32:26;;;;;;;23.95;10.52;;;;;;;;;;6189311;23;20005;-88
2023/01/28 10:34:52;;;;;;;24.63;11.18;;;;;;;;;;6184158;23;20005;-87
2023/01/28 10:37:18;;;;;;;31.58;12.82;;;;;;;;;;6181813;23;20077;-89
2023/01/28 10:39:43;;;;;;;25.95;11.80;;;;;;;;;;6156675;23;20468;-86
2023/01/28 10:42:28;;;;;;;26.20;10.65;;;;;;;;;;6183898;23;20067;-89
2023/01/28 10:44:56;;;;;;;27.00;11.60;;;;;;;;;;6183788;23;20619;-88
2023/01/28 10:47:36;;;;;;;25.27;11.65;;;;;;;;;;6127426;23;20009;-87
2023/01/28 10:50:04;;;;;;;18.85;10.48;;;;;;;;;;6197848;23;20361;-85
2023/01/28 10:52:30;;;;;;;22.20;10.27;;;;;;;;;;6162150;23;20100;-86
2023/01/28 10:54:59;;;;;;;21.90;10.95;;;;;;;;;;6182654;23;20005;-88
2023/01/28 10:57:25;;;;;;;17.65;9.73;;;;;;;;;;6183779;23;20029;-88
2023/01/28 10:59:50;;;;;;;21.67;10.43;;;;;;;;;;6186379;23;20077;-89
2023/01/28 11:02:25;;;;;;;20.55;10.43;;;;;;;;;;6186301;23;20008;-87
2023/01/28 11:05:16;;;;;;;26.00;11.93;;;;;;;;;;6182410;23;20005;-89
2023/01/28 11:07:42;;;;;;;24.75;11.55;;;;;;;;;;6183824;23;20321;-87
2023/01/28 11:10:22;;;;;;;24.45;11.20;;;;;;;;;;6171440;23;20020;-89
2023/01/28 11:12:54;;;;;;;22.20;11.43;;;;;;;;;;6183660;23;20011;-88
2023/01/28 11:15:19;;;;;;;20.85;9.98;;;;;;;;;;6180558;23;20325;-87
2023/01/28 11:17:47;;;;;;;25.05;11.07;;;;;;;;;;6182714;23;20060;-90
2023/01/28 11:20:19;;;;;;;28.88;12.35;;;;;;;;;;6156456;23;19997;-87
2023/01/28 11:22:44;;;;;;;30.50;13.90;;;;;;;;;;6184516;23;20001;-88
2023/01/28 11:25:15;;;;;;;26.17;12.95;;;;;;;;;;6184467;23;20028;-85
2023/01/28 11:27:40;;;;;;;25.48;13.13;;;;;;;;;;6190143;23;20008;-86
2023/01/28 11:30:22;;;;;;;25.45;12.40;;;;;;;;;;6144993;23;20013;-88
2023/01/28 11:32:59;;;;;;;29.63;14.25;;;;;;;;;;6192984;23;20033;-86
2023/01/28 11:35:29;;;;;;;30.73;15.23;;;;;;;;;;6174139;23;20009;-86
2023/01/28 11:37:57;;;;;;;27.73;14.27;;;;;;;;;;6174917;23;20032;-87
2023/01/28 11:40:23;;;;;;;33.28;15.75;;;;;;;;;;6188356;23;20101;-87
2023/01/28 11:42:54;;;;;;;32.97;16.33;;;;;;;;;;6191435;23;20008;-87
2023/01/28 11:45:57;;;;;;;31.15;15.77;;;;;;;;;;6164221;23;20010;-83
2023/01/28 11:48:34;;;;;;;32.72;15.13;;;;;;;;;;6203456;23;20009;-87
2023/01/28 11:51:05;;;;;;;29.42;14.45;;;;;;;;;;6208983;23;20009;-87
2023/01/28 11:53:31;;;;;;;31.38;14.93;;;;;;;;;;6209645;23;20040;-86
2023/01/28 11:56:12;;;;;;;30.92;15.15;;;;;;;;;;6211653;23;19997;-83
2023/01/28 11:58:50;;;;;;;;;;;;;;;;;;6211694;23;20053;-84
2023/01/28 12:01:46;;;;;;;34.15;16.00;;;;;;;;;;6210195;23;19908;-86
2023/01/28 12:05:06;;;;;;;29.27;13.68;;;;;;;;;;6199732;23;20009;-85
2023/01/28 12:07:37;;;;;;;;;;;;;;;;;;6118989;23;20006;-87
2023/01/28 12:10:15;;;;;;;28.30;12.93;;;;;;;;;;6181967;23;19984;-87
2023/01/28 12:12:49;;;;;;;30.13;15.73;;;;;;;;;;6181673;23;20071;-85
2023/01/28 12:15:56;;;;;;;36.47;17.27;;;;;;;;;;6180984;23;20001;-85
2023/01/28 12:18:42;;;;;;;31.48;16.73;;;;;;;;;;6123622;23;20413;-86
2023/01/28 12:21:20;;;;;;;26.85;14.38;;;;;;;;;;6186322;23;20044;-88
2023/01/28 12:24:14;;;;;;;28.35;15.23;;;;;;;;;;6181931;23;20075;-87
2023/01/28 12:26:52;;;;;;;30.10;15.38;;;;;;;;;;6189007;23;20487;-86
2023/01/28 12:29:24;;;;;;;31.83;14.80;;;;;;;;;;6183184;23;20028;-87
2023/01/28 12:32:11;;;;;;;33.53;15.93;;;;;;;;;;6185500;23;20034;-88
2023/01/28 12:34:54;;;;;;;34.47;16.92;;;;;;;;;;6184691;23;20401;-88
2023/01/28 12:37:44;;;;;;;31.60;15.23;;;;;;;;;;6187316;23;20015;-87
2023/01/28 12:40:42;;;;;;;34.88;17.80;;;;;;;;;;6182312;23;20133;-87
2023/01/28 12:43:33;;;;;;;29.92;14.88;;;;;;;;;;6161164;23;19993;-87
2023/01/28 12:46:01;;;;;;;32.33;15.75;;;;;;;;;;6158309;23;20325;-87
2023/01/28 12:48:45;;;;;;;30.05;15.52;;;;;;;;;;6157933;23;20001;-86
2023/01/28 12:51:20;;;;;;;29.10;15.10;;;;;;;;;;6156466;23;20459;-86
2023/01/28 12:53:56;;;;;;;31.90;16.75;;;;;;;;;;6130736;23;20005;-86
2023/01/28 12:56:30;;;;;;;29.50;14.68;;;;;;;;;;6157259;23;20016;-85
2023/01/28 12:58:59;;;;;;;34.58;18.10;;;;;;;;;;6155799;23;20016;-86
2023/01/28 13:01:29;;;;;;;28.88;15.95;;;;;;;;;;6157065;23;20455;-87
2023/01/28 13:04:08;;;;;;;31.38;15.90;;;;;;;;;;6187348;23;20364;-87
2023/01/28 13:07:09;;;;;;;33.03;16.52;;;;;;;;;;6160372;23;20009;-86
2023/01/28 13:09:35;;;;;;;30.60;15.25;;;;;;;;;;6168383;23;20622;-88
2023/01/28 13:12:01;;;;;;;34.97;18.08;;;;;;;;;;6130997;23;20001;-82
2023/01/28 13:14:28;;;;;;;31.08;14.73;;;;;;;;;;6181913;23;20532;-86
2023/01/28 13:16:54;;;;;;;29.23;15.20;;;;;;;;;;6155311;23;20001;-86
2023/01/28 13:19:19;;;;;;;32.42;17.23;;;;;;;;;;6183505;23;20416;-87
2023/01/28 13:21:45;;;;;;;35.58;17.15;;;;;;;;;;6181952;23;20009;-86
2023/01/28 13:24:11;;;;;;;39.33;18.80;;;;;;;;;;6166894;23;20005;-84
2023/01/28 13:26:53;;;;;;;40.75;19.20;;;;;;;;;;6182980;23;20310;-86
2023/01/28 13:29:23;;;;;;;34.92;16.88;;;;;;;;;;6184065;23;20002;-87
2023/01/28 13:31:51;;;;;;;33.58;17.35;;;;;;;;;;6181141;23;20413;-86
2023/01/28 13:34:39;;;;;;;61.80;25.02;;;;;;;;;;6182807;23;20005;-87
2023/01/28 13:37:26;;;;;;;36.60;17.83;;;;;;;;;;6181547;23;20428;-88
2023/01/28 13:40:05;;;;;;;36.55;17.88;;;;;;;;;;6183353;23;20009;-87
2023/01/28 13:42:30;;;;;;;39.22;17.83;;;;;;;;;;6193114;23;20009;-87
2023/01/28 13:45:07;;;;;;;32.45;15.95;;;;;;;;;;6189748;23;20005;-88
2023/01/28 13:47:33;;;;;;;35.25;18.20;;;;;;;;;;6146714;23;20014;-87
2023/01/28 13:50:13;;;;;;;31.92;16.85;;;;;;;;;;6132494;23;1255141;-86
2023/01/28 13:53:24;;;;;;;35.05;17.75;;;;;;;;;;6166629;23;20028;-87
2023/01/28 13:55:49;;;;;;;38.35;18.48;;;;;;;;;;6180776;23;20009;-87
2023/01/28 13:58:34;;;;;;;33.22;17.02;;;;;;;;;;6193022;23;20072;-85
2023/01/28 14:01:15;;;;;;;40.97;18.17;;;;;;;;;;6202026;23;20376;-85
2023/01/28 14:04:10;;;;;;;38.47;17.83;;;;;;;;;;6209893;23;20001;-82
2023/01/28 14:07:21;;;;;;;37.83;17.58;;;;;;;;;;6204465;23;20005;-85
2023/01/28 14:10:06;;;;;;;35.85;18.05;;;;;;;;;;6202593;23;20005;-86
2023/01/28 14:12:35;;;;;;;30.67;16.60;;;;;;;;;;6192775;23;20036;-86
2023/01/28 14:15:26;;;;;;;33.25;17.15;;;;;;;;;;6186621;23;20329;-88
2023/01/28 14:17:56;;;;;;;36.90;18.25;;;;;;;;;;6184150;23;20293;-87
2023/01/28 14:20:24;;;;;;;31.13;15.88;;;;;;;;;;6184624;23;20084;-85
2023/01/28 14:22:50;;;;;;;34.63;16.25;;;;;;;;;;6191129;23;20005;-87
2023/01/28 14:25:41;;;;;;;33.58;16.67;;;;;;;;;;6188879;23;20005;-87
2023/01/28 14:28:06;;;;;;;44.72;18.00;;;;;;;;;;6166350;23;20012;-86
2023/01/28 14:30:42;;;;;;;40.30;18.77;;;;;;;;;;6183880;23;20383;-85
2023/01/28 14:33:08;;;;;;;34.85;16.67;;;;;;;;;;6160344;23;20001;-87
2023/01/28 14:35:34;;;;;;;41.53;18.90;;;;;;;;;;6160029;23;20428;-88
2023/01/28 14:37:59;;;;;;;51.92;22.35;;;;;;;;;;6184274;23;20004;-89
2023/01/28 14:40:27;;;;;;;40.08;20.30;;;;;;;;;;6162038;23;20005;-87
2023/01/28 14:42:53;;;;;;;41.53;18.52;;;;;;;;;;6173095;23;20055;-87
2023/01/28 14:45:28;;;;;;;40.67;18.17;;;;;;;;;;6165257;23;20025;-86
2023/01/28 14:48:30;;;;;;;42.03;18.58;;;;;;;;;;6185589;23;20001;-87
2023/01/28 14:51:23;;;;;;;42.03;19.50;;;;;;;;;;6185602;23;20432;-86
2023/01/28 14:53:58;;;;;;;44.03;20.27;;;;;;;;;;6186603;23;20351;-84
2023/01/28 14:56:44;;;;;;;50.45;21.52;;;;;;;;;;6177806;23;20009;-86
2023/01/28 14:59:24;;;;;;;54.40;24.02;;;;;;;;;;6184944;23;20289;-87
2023/01/28 15:01:54;;;;;;;43.40;20.42;;;;;;;;;;6194911;23;19997;-86
2023/01/28 15:04:30;;;;;;;54.90;23.55;;;;;;;;;;6184819;23;20087;-88
2023/01/28 15:07:00;;;;;;;59.22;24.42;;;;;;;;;;6186258;23;20441;-84